Time;durP1;ratioP1;P1;durP2;ratioP2;P2;SDS_P1;SDS_P2;PMS_P1;PMS_P2;Temp;Humidity;BMP_temperature;BMP_pressure;BME280_temperature;BME280_humidity;BME280_pressure;Samples;Min_cycle;Max_cycle;Signal;HPM_P1;HPM_P2
2022/06/10 00:00:25;;;;;;;;;;;10.70;99.90;;;;;;4976682;28;27162;-78
2022/06/10 00:02:52;;;;;;;;;;;10.60;99.90;;;;;;4974669;28;27092;-78
2022/06/10 00:05:22;;;;;;;;;;;10.50;99.90;;;;;;4976887;28;29061;-78
2022/06/10 00:07:50;;;;;;;;;;;10.50;99.90;;;;;;4975600;28;29124;-78
2022/06/10 00:10:19;;;;;;;;;;;10.40;99.90;;;;;;4970969;28;25114;-78
2022/06/10 00:12:47;;;;;;;;;;;10.30;99.90;;;;;;4977840;28;25115;-78
2022/06/10 00:15:14;;;;;;;;;;;10.30;99.90;;;;;;4977915;28;27093;-78
2022/06/10 00:17:41;;;;;;;;;;;10.20;99.90;;;;;;4976359;28;25171;-77
2022/06/10 00:20:09;;;;;;;;;;;10.10;99.90;;;;;;4975598;28;28081;-77
2022/06/10 00:22:36;;;;;;;;;;;10.10;99.90;;;;;;4965049;28;28065;-77
2022/06/10 00:25:03;;;;;;;;;;;10.10;99.90;;;;;;4975221;28;29251;-77
2022/06/10 00:27:33;;;;;;;;;;;10.10;99.90;;;;;;4974019;28;25087;-77
2022/06/10 00:30:00;;;;;;;;;;;10.20;99.90;;;;;;4970206;28;25071;-76
2022/06/10 00:32:26;;;;;;;;;;;10.20;99.90;;;;;;4962492;28;27200;-77
2022/06/10 00:34:53;;;;;;;;;;;10.20;99.90;;;;;;4973853;28;25576;-77
2022/06/10 00:37:20;;;;;;;;;;;10.30;99.90;;;;;;4976558;28;25047;-77
2022/06/10 00:39:47;;;;;;;;;;;10.20;99.90;;;;;;4971613;28;29188;-77
2022/06/10 00:42:13;;;;;;;;;;;10.30;99.90;;;;;;4975302;28;29104;-77
2022/06/10 00:44:45;;;;;;;;;;;10.30;99.90;;;;;;4975557;28;26192;-77
2022/06/10 00:47:23;;;;;;;;;;;10.30;99.90;;;;;;4966747;28;25056;-77
2022/06/10 00:49:57;;;;;;;;;;;10.30;99.90;;;;;;4960905;28;29074;-76
2022/06/10 00:52:30;;;;;;;;;;;10.20;99.90;;;;;;4976764;28;27175;-76
2022/06/10 00:54:57;;;;;;;;;;;10.20;99.90;;;;;;4968951;28;25118;-76
2022/06/10 00:57:30;;;;;;;;;;;10.20;99.90;;;;;;4960180;28;25159;-76
2022/06/10 01:00:03;;;;;;;;;;;10.20;99.90;;;;;;4965734;28;26117;-76
2022/06/10 01:02:33;;;;;;;;;;;10.40;99.90;;;;;;4976107;28;29104;-77
2022/06/10 01:05:01;;;;;;;;;;;10.40;99.90;;;;;;4973593;28;29120;-77
2022/06/10 01:07:31;;;;;;;;;;;10.40;99.90;;;;;;4969226;28;27166;-77
2022/06/10 01:10:00;;;;;;;;;;;10.40;99.90;;;;;;4974593;28;28049;-76
2022/06/10 01:12:29;;;;;;;;;;;10.30;99.90;;;;;;4975756;28;27144;-77
2022/06/10 01:15:04;;;;;;;;;;;10.30;99.90;;;;;;4974719;28;25114;-77
2022/06/10 01:17:37;;;;;;;;;;;10.20;99.90;;;;;;4975884;28;26158;-77
2022/06/10 01:20:11;;;;;;;;;;;10.10;99.90;;;;;;4955674;28;29083;-77
2022/06/10 01:22:47;;;;;;;;;;;9.90;99.90;;;;;;4964669;28;25155;-78
2022/06/10 01:25:32;;;;;;;;;;;9.80;99.90;;;;;;4977568;28;27062;-79
2022/06/10 01:28:08;;;;;;;;;;;9.70;99.90;;;;;;4977621;28;25093;-78
2022/06/10 01:30:51;;;;;;;;;;;9.70;99.90;;;;;;4976684;28;26167;-77
2022/06/10 01:33:21;;;;;;;;;;;9.60;99.90;;;;;;4976133;28;26131;-77
2022/06/10 01:35:48;;;;;;;;;;;9.60;99.90;;;;;;4977542;28;25103;-77
2022/06/10 01:38:26;;;;;;;;;;;9.50;99.90;;;;;;4975187;28;28076;-76
2022/06/10 01:41:02;;;;;;;;;;;9.40;99.90;;;;;;4975535;28;30233;-76
2022/06/10 01:43:52;;;;;;;;;;;9.30;99.90;;;;;;4976167;28;26117;-76
2022/06/10 01:46:25;;;;;;;;;;;9.30;99.90;;;;;;4973247;28;25071;-78
2022/06/10 01:49:00;;;;;;;;;;;9.20;99.90;;;;;;4965085;28;25075;-78
2022/06/10 01:51:49;;;;;;;;;;;9.30;99.90;;;;;;4975559;28;29067;-77
2022/06/10 01:54:25;;;;;;;;;;;9.40;99.90;;;;;;4955997;28;28134;-78
2022/06/10 01:56:54;;;;;;;;;;;9.40;99.90;;;;;;4971215;28;44113;-77
2022/06/10 01:59:27;;;;;;;;;;;9.40;99.90;;;;;;4973333;28;29106;-76
2022/06/10 02:02:04;;;;;;;;;;;9.30;99.90;;;;;;4964974;28;26107;-76
2022/06/10 02:04:35;;;;;;;;;;;9.20;99.90;;;;;;4971556;28;27115;-76
2022/06/10 02:07:07;;;;;;;;;;;9.10;99.90;;;;;;4971874;28;31114;-76
2022/06/10 02:09:46;;;;;;;;;;;9.00;99.90;;;;;;4972911;28;25103;-76
2022/06/10 02:12:18;;;;;;;;;;;8.90;99.90;;;;;;4973781;28;27100;-76
2022/06/10 02:14:50;;;;;;;;;;;8.70;99.90;;;;;;4972426;28;32061;-77
2022/06/10 02:17:20;;;;;;;;;;;8.70;99.90;;;;;;4974535;28;26060;-76
2022/06/10 02:19:53;;;;;;;;;;;8.60;99.90;;;;;;4975704;28;28067;-76
2022/06/10 02:22:34;;;;;;;;;;;8.50;99.90;;;;;;4974219;28;31112;-76
2022/06/10 02:25:12;;;;;;;;;;;8.50;99.90;;;;;;4974349;28;25097;-76
2022/06/10 02:27:41;;;;;;;;;;;8.50;99.90;;;;;;4975472;28;27123;-76
2022/06/10 02:30:10;;;;;;;;;;;8.60;99.90;;;;;;4975282;28;28127;-76
2022/06/10 02:32:41;;;;;;;;;;;8.70;99.90;;;;;;4975126;28;28072;-76
2022/06/10 02:35:08;;;;;;;;;;;8.70;99.90;;;;;;4975178;28;27110;-76
2022/06/10 02:37:35;;;;;;;;;;;8.70;99.90;;;;;;4975809;28;25061;-76
2022/06/10 02:40:02;;;;;;;;;;;8.70;99.90;;;;;;4974096;28;25005;-76
2022/06/10 02:42:31;;;;;;;;;;;8.70;99.90;;;;;;4975540;28;25143;-76
2022/06/10 02:45:04;;;;;;;;;;;8.70;99.90;;;;;;4974805;28;27123;-76
2022/06/10 02:47:31;;;;;;;;;;;8.80;99.90;;;;;;4975051;28;27165;-76
2022/06/10 02:49:57;;;;;;;;;;;8.80;99.90;;;;;;4975695;28;28063;-76
2022/06/10 02:52:30;;;;;;;;;;;8.80;99.90;;;;;;4975854;28;28150;-76
2022/06/10 02:54:57;;;;;;;;;;;8.70;99.90;;;;;;4971529;28;31167;-77
2022/06/10 03:03:02;;;;;;;;;;;8.40;99.90;;;;;;4970297;28;26179;-76
2022/06/10 03:05:31;;;;;;;;;;;8.30;99.90;;;;;;4972550;28;26115;-76
2022/06/10 03:08:05;;;;;;;;;;;8.10;99.90;;;;;;4972999;28;28120;-76
2022/06/10 03:10:36;;;;;;;;;;;8.00;99.90;;;;;;4971743;28;25080;-76
2022/06/10 03:13:21;;;;;;;;;;;8.00;99.90;;;;;;4965422;28;27108;-76
2022/06/10 03:15:51;;;;;;;;;;;8.00;99.90;;;;;;4975577;28;25067;-76
2022/06/10 03:18:25;;;;;;;;;;;8.10;99.90;;;;;;4972144;28;27119;-77
2022/06/10 03:21:05;;;;;;;;;;;8.20;99.90;;;;;;4968513;28;28173;-77
2022/06/10 03:23:31;;;;;;;;;;;8.30;99.90;;;;;;4973310;28;25133;-76
2022/06/10 03:26:07;;;;;;;;;;;8.40;99.90;;;;;;4968547;28;26190;-76
2022/06/10 03:28:43;;;;;;;;;;;8.50;99.90;;;;;;4958688;28;25156;-76
2022/06/10 03:31:19;;;;;;;;;;;8.50;99.90;;;;;;4961316;28;27078;-76
2022/06/10 03:33:49;;;;;;;;;;;8.50;99.90;;;;;;4977539;28;28065;-76
2022/06/10 03:36:25;;;;;;;;;;;8.40;99.90;;;;;;4965565;28;25153;-76
2022/06/10 03:38:53;;;;;;;;;;;8.30;99.90;;;;;;4975446;28;29182;-76
2022/06/10 03:41:19;;;;;;;;;;;8.30;99.90;;;;;;4965987;28;26089;-76
2022/06/10 03:43:46;;;;;;;;;;;8.20;99.90;;;;;;4961144;28;26076;-76
2022/06/10 03:46:14;;;;;;;;;;;8.30;99.90;;;;;;4977793;28;26075;-76
2022/06/10 03:48:42;;;;;;;;;;;8.30;99.90;;;;;;4976789;28;26092;-76
2022/06/10 03:51:10;;;;;;;;;;;8.40;99.90;;;;;;4974203;28;35099;-77
2022/06/10 03:53:37;;;;;;;;;;;8.50;99.90;;;;;;4976250;28;29116;-77
2022/06/10 03:56:08;;;;;;;;;;;8.60;99.90;;;;;;4970652;28;27104;-76
2022/06/10 03:58:35;;;;;;;;;;;8.60;99.90;;;;;;4967684;28;29160;-76
2022/06/10 04:01:02;;;;;;;;;;;8.60;99.90;;;;;;4976481;28;26146;-77
2022/06/10 04:03:30;;;;;;;;;;;8.70;99.90;;;;;;4974751;28;29156;-77
2022/06/10 04:05:57;;;;;;;;;;;8.80;99.90;;;;;;4975514;28;25155;-77
2022/06/10 04:08:43;;;;;;;;;;;8.90;99.90;;;;;;4972049;28;29127;-77
2022/06/10 04:11:10;;;;;;;;;;;9.00;99.90;;;;;;4976980;28;28103;-77
2022/06/10 04:13:37;;;;;;;;;;;9.10;99.90;;;;;;4976182;28;28112;-76
2022/06/10 04:16:04;;;;;;;;;;;9.20;99.90;;;;;;4973239;28;28128;-76
2022/06/10 04:18:32;;;;;;;;;;;9.30;99.90;;;;;;4978030;28;29058;-76
2022/06/10 04:20:58;;;;;;;;;;;9.40;99.90;;;;;;4975151;28;29117;-77
2022/06/10 04:23:27;;;;;;;;;;;9.50;99.90;;;;;;4968499;28;29279;-77
2022/06/10 04:25:54;;;;;;;;;;;9.70;99.90;;;;;;4975235;28;25123;-77
2022/06/10 04:28:21;;;;;;;;;;;9.80;99.90;;;;;;4972567;28;27069;-76
2022/06/10 04:30:49;;;;;;;;;;;9.80;99.90;;;;;;4974079;28;26106;-76
2022/06/10 04:33:17;;;;;;;;;;;9.90;99.90;;;;;;4969629;28;29105;-77
2022/06/10 04:35:45;;;;;;;;;;;9.90;99.90;;;;;;4974127;28;30117;-78
2022/06/10 04:38:13;;;;;;;;;;;10.00;99.90;;;;;;4972745;28;31081;-77
2022/06/10 04:40:41;;;;;;;;;;;10.40;99.90;;;;;;4968573;28;29062;-76
2022/06/10 04:43:08;;;;;;;;;;;11.70;99.90;;;;;;4967111;28;29131;-78
2022/06/10 04:45:37;;;;;;;;;;;13.00;99.90;;;;;;4968446;28;30221;-79
2022/06/10 04:48:06;;;;;;;;;;;13.70;99.90;;;;;;4966408;28;27125;-78
2022/06/10 04:50:34;;;;;;;;;;;14.70;99.90;;;;;;4965504;28;26159;-78
2022/06/10 04:53:00;;;;;;;;;;;15.60;99.90;;;;;;4973380;28;25053;-78
2022/06/10 04:55:27;;;;;;;;;;;16.10;99.90;;;;;;5040844;28;25091;-78
2022/06/10 04:58:11;;;;;;;;;;;16.70;99.90;;;;;;5063576;28;19975;-78
2022/06/10 05:00:43;;;;;;;;;;;17.90;99.90;;;;;;5072707;28;20617;-78
2022/06/10 05:03:12;;;;;;;;;;;19.40;99.90;;;;;;5057953;28;19981;-78
2022/06/10 05:05:39;;;;;;;;;;;20.70;99.90;;;;;;5063666;28;19929;-78
2022/06/10 05:08:07;;;;;;;;;;;21.70;99.90;;;;;;5071258;28;20473;-77
2022/06/10 05:10:34;;;;;;;;;;;22.30;99.90;;;;;;5067378;28;19924;-76
2022/06/10 05:13:01;;;;;;;;;;;23.10;99.90;;;;;;5065733;28;19929;-75
2022/06/10 05:15:28;;;;;;;;;;;23.40;99.90;;;;;;5072288;28;20339;-75
2022/06/10 05:17:56;;;;;;;;;;;23.50;99.90;;;;;;5072771;28;19931;-75
2022/06/10 05:20:32;;;;;;;;;;;23.70;99.90;;;;;;5072838;28;19951;-75
2022/06/10 05:22:59;;;;;;;;;;;24.20;99.90;;;;;;5066281;28;19982;-75
2022/06/10 05:25:26;;;;;;;;;;;24.30;99.90;;;;;;5065588;28;20446;-76
2022/06/10 05:27:52;;;;;;;;;;;24.60;99.90;;;;;;5058336;28;19931;-76
2022/06/10 05:30:22;;;;;;;;;;;25.30;99.90;;;;;;5070884;28;19968;-74
2022/06/10 05:32:49;;;;;;;;;;;25.80;99.90;;;;;;5067649;28;20022;-74
2022/06/10 05:35:18;;;;;;;;;;;26.40;99.90;;;;;;5057276;28;20555;-75
2022/06/10 05:37:47;;;;;;;;;;;26.80;99.90;;;;;;5071767;28;20585;-75
2022/06/10 05:40:21;;;;;;;;;;;26.80;99.90;;;;;;5073528;28;20018;-76
2022/06/10 05:42:47;;;;;;;;;;;26.80;99.90;;;;;;5071611;28;19930;-76
2022/06/10 05:45:17;;;;;;;;;;;26.60;99.90;;;;;;5070969;28;20473;-75
2022/06/10 05:47:54;;;;;;;;;;;27.10;99.90;;;;;;5063998;28;19936;-76
2022/06/10 05:50:23;;;;;;;;;;;27.30;99.90;;;;;;5073131;28;19983;-77
2022/06/10 05:52:50;;;;;;;;;;;27.30;99.90;;;;;;5067470;28;20023;-77
2022/06/10 05:55:18;;;;;;;;;;;27.20;99.90;;;;;;5060430;28;20022;-76
2022/06/10 05:57:46;;;;;;;;;;;27.10;99.90;;;;;;5066373;28;19952;-76
2022/06/10 06:00:15;;;;;;;;;;;26.90;99.90;;;;;;5072829;28;19960;-78
2022/06/10 06:02:41;;;;;;;;;;;27.00;99.90;;;;;;5072780;28;19928;-77
2022/06/10 06:05:10;;;;;;;;;;;26.80;99.90;;;;;;5070367;28;20630;-77
2022/06/10 06:07:38;;;;;;;;;;;27.00;99.90;;;;;;5070684;28;19930;-76
2022/06/10 06:10:05;;;;;;;;;;;27.00;99.90;;;;;;5068485;28;19931;-77
2022/06/10 06:12:31;;;;;;;;;;;27.40;99.90;;;;;;5067370;28;19987;-78
2022/06/10 06:14:58;;;;;;;;;;;27.20;99.90;;;;;;5070032;28;20290;-78
2022/06/10 06:17:25;;;;;;;;;;;27.20;99.90;;;;;;5065767;28;20023;-77
2022/06/10 06:19:51;;;;;;;;;;;27.50;99.90;;;;;;5071967;28;19929;-78
2022/06/10 06:22:19;;;;;;;;;;;27.70;99.90;;;;;;5065444;28;20248;-76
2022/06/10 06:24:45;;;;;;;;;;;28.00;99.90;;;;;;5067740;28;20373;-77
2022/06/10 06:27:17;;;;;;;;;;;28.40;99.90;;;;;;5062081;28;19931;-76
2022/06/10 06:29:47;;;;;;;;;;;28.60;99.90;;;;;;5072376;28;20267;-76
2022/06/10 06:32:14;;;;;;;;;;;28.60;99.90;;;;;;5070990;28;19930;-77
2022/06/10 06:34:41;;;;;;;;;;;28.40;99.90;;;;;;5070030;28;20015;-76
2022/06/10 06:37:14;;;;;;;;;;;27.90;99.90;;;;;;5070441;28;20492;-74
2022/06/10 06:39:41;;;;;;;;;;;27.20;99.90;;;;;;5073081;28;19925;-77
2022/06/10 06:42:17;;;;;;;;;;;27.00;99.90;;;;;;5057460;28;19954;-77
2022/06/10 06:44:44;;;;;;;;;;;27.40;99.90;;;;;;5072279;28;19931;-77
2022/06/10 06:47:34;;;;;;;;;;;27.60;99.90;;;;;;5071711;28;19925;-78
2022/06/10 06:50:00;;;;;;;;;;;28.00;99.90;;;;;;5072251;28;19931;-78
2022/06/10 06:52:32;;;;;;;;;;;28.10;99.90;;;;;;5070109;28;20302;-78
2022/06/10 06:54:58;;;;;;;;;;;27.60;99.90;;;;;;5070440;28;19925;-77
2022/06/10 06:57:28;;;;;;;;;;;27.60;99.90;;;;;;5070323;28;20023;-77
2022/06/10 07:00:05;;;;;;;;;;;27.90;99.90;;;;;;5065041;28;19925;-76
2022/06/10 07:02:34;;;;;;;;;;;27.70;99.90;;;;;;5064933;28;19931;-76
2022/06/10 07:05:02;;;;;;;;;;;27.10;99.90;;;;;;5063100;28;19970;-77
2022/06/10 07:07:32;;;;;;;;;;;27.60;99.90;;;;;;5066664;28;20282;-76
2022/06/10 07:09:59;;;;;;;;;;;27.50;99.90;;;;;;5070047;28;20016;-78
2022/06/10 07:12:27;;;;;;;;;;;27.60;99.90;;;;;;5070260;28;19986;-78
2022/06/10 07:14:53;;;;;;;;;;;27.90;99.90;;;;;;5071074;28;19924;-77
2022/06/10 07:17:20;;;;;;;;;;;27.90;99.90;;;;;;5071212;28;20027;-77
2022/06/10 07:19:48;;;;;;;;;;;27.70;99.90;;;;;;5059554;28;20462;-75
2022/06/10 07:22:15;;;;;;;;;;;27.30;99.90;;;;;;5061633;28;19932;-77
2022/06/10 07:24:42;;;;;;;;;;;27.50;99.90;;;;;;5064806;28;19929;-77
2022/06/10 07:27:10;;;;;;;;;;;27.50;99.90;;;;;;5070537;28;19932;-77
2022/06/10 07:29:37;;;;;;;;;;;27.70;99.90;;;;;;5072023;28;20016;-78
2022/06/10 07:32:04;;;;;;;;;;;28.30;99.90;;;;;;5068580;28;19939;-76
2022/06/10 07:34:30;;;;;;;;;;;28.10;99.90;;;;;;5066339;28;19931;-77
2022/06/10 07:36:57;;;;;;;;;;;27.40;99.90;;;;;;5058414;28;20021;-78
2022/06/10 07:39:24;;;;;;;;;;;27.80;99.90;;;;;;5058691;28;19956;-77
2022/06/10 07:42:02;;;;;;;;;;;28.20;99.90;;;;;;5071677;28;20581;-77
2022/06/10 07:44:31;;;;;;;;;;;28.80;99.90;;;;;;5071456;28;19986;-73
2022/06/10 07:47:01;;;;;;;;;;;29.20;99.90;;;;;;5067283;28;20450;-76
2022/06/10 07:49:28;;;;;;;;;;;29.20;99.90;;;;;;5070194;28;19932;-76
2022/06/10 07:51:55;;;;;;;;;;;28.70;99.90;;;;;;5067299;28;19924;-76
2022/06/10 07:54:23;;;;;;;;;;;28.00;99.90;;;;;;5063022;28;19924;-76
2022/06/10 07:56:50;;;;;;;;;;;28.10;99.90;;;;;;5064112;28;19970;-77
2022/06/10 07:59:17;;;;;;;;;;;28.00;99.90;;;;;;5069593;28;20136;-77
2022/06/10 08:01:44;;;;;;;;;;;28.00;99.90;;;;;;5070055;28;19931;-77
2022/06/10 08:04:11;;;;;;;;;;;28.00;99.90;;;;;;5069006;28;19967;-77
2022/06/10 08:06:40;;;;;;;;;;;28.00;99.90;;;;;;5066990;28;20406;-77
2022/06/10 08:09:07;;;;;;;;;;;28.40;99.90;;;;;;5068242;28;19924;-77
2022/06/10 08:11:34;;;;;;;;;;;29.00;99.90;;;;;;5060332;28;19932;-77
2022/06/10 08:14:00;;;;;;;;;;;28.70;99.90;;;;;;5061611;28;19956;-77
2022/06/10 08:16:27;;;;;;;;;;;28.50;99.90;;;;;;5069025;28;19934;-76
2022/06/10 08:18:54;;;;;;;;;;;29.00;99.90;;;;;;5065043;28;19956;-77
2022/06/10 08:24:06;;;;;;;;;;;27.80;99.90;;;;;;5057938;28;20015;-76
2022/06/10 08:26:36;;;;;;;;;;;27.30;99.90;;;;;;5061243;28;19924;-77
2022/06/10 08:29:03;;;;;;;;;;;27.50;99.90;;;;;;5065774;28;19924;-76
2022/06/10 08:31:30;;;;;;;;;;;27.50;99.90;;;;;;5067210;28;20019;-77
2022/06/10 08:33:57;;;;;;;;;;;27.70;99.90;;;;;;5068565;28;19951;-75
2022/06/10 08:36:27;;;;;;;;;;;27.70;99.90;;;;;;5066297;28;19932;-76
2022/06/10 08:38:53;;;;;;;;;;;28.00;99.90;;;;;;5064121;28;19925;-75
2022/06/10 08:41:20;;;;;;;;;;;28.20;99.90;;;;;;5068528;28;19925;-75
2022/06/10 08:43:53;;;;;;;;;;;27.60;99.90;;;;;;5067050;28;19930;-77
2022/06/10 08:46:25;;;;;;;;;;;27.30;99.90;;;;;;5069244;28;19929;-77
2022/06/10 08:49:01;;;;;;;;;;;27.10;99.90;;;;;;5069990;28;19929;-75
2022/06/10 08:51:36;;;;;;;;;;;26.60;99.90;;;;;;5071791;28;20584;-75
2022/06/10 08:54:21;;;;;;;;;;;26.90;99.90;;;;;;5067364;28;19939;-73
2022/06/10 08:56:49;;;;;;;;;;;26.90;99.90;;;;;;5068576;28;19933;-69
2022/06/10 08:59:35;;;;;;;;;;;26.70;99.90;;;;;;5069527;28;19932;-70
2022/06/10 09:02:12;;;;;;;;;;;27.30;99.90;;;;;;5062678;28;19924;-70
2022/06/10 09:04:53;;;;;;;;;;;27.80;99.90;;;;;;5065218;28;19963;-71
2022/06/10 09:07:28;;;;;;;;;;;28.80;99.90;;;;;;5067013;28;19947;-71
2022/06/10 09:09:57;;;;;;;;;;;29.00;99.90;;;;;;5069521;28;19934;-71
2022/06/10 09:12:48;;;;;;;;;;;28.80;98.90;;;;;;5068656;28;19925;-71
2022/06/10 09:15:16;;;;;;;;;;;29.10;98.60;;;;;;5067977;28;19931;-71
2022/06/10 09:17:48;;;;;;;;;;;28.80;98.40;;;;;;5067163;28;19928;-70
2022/06/10 09:20:21;;;;;;;;;;;29.20;98.80;;;;;;5071342;28;20020;-71
2022/06/10 09:23:10;;;;;;;;;;;29.50;98.30;;;;;;5068063;28;19931;-70
2022/06/10 09:25:41;;;;;;;;;;;29.60;97.80;;;;;;5066803;28;20461;-71
2022/06/10 09:28:08;;;;;;;;;;;28.80;98.00;;;;;;5069977;28;19924;-70
2022/06/10 09:30:46;;;;;;;;;;;28.70;97.90;;;;;;5064047;28;19924;-71
2022/06/10 09:33:37;;;;;;;;;;;28.80;97.70;;;;;;5066240;28;19933;-69
2022/06/10 09:36:09;;;;;;;;;;;28.30;96.90;;;;;;5066118;28;19935;-72
2022/06/10 09:38:36;;;;;;;;;;;28.90;97.90;;;;;;5068877;28;19925;-71
2022/06/10 09:41:03;;;;;;;;;;;29.10;97.50;;;;;;5069677;28;19928;-72
2022/06/10 09:43:50;;;;;;;;;;;29.50;97.60;;;;;;5063329;28;20375;-70
2022/06/10 09:46:36;;;;;;;;;;;29.20;96.30;;;;;;5065355;28;19955;-70
2022/06/10 09:49:12;;;;;;;;;;;28.80;96.70;;;;;;5068478;28;19932;-72
2022/06/10 09:51:39;;;;;;;;;;;27.80;97.30;;;;;;5062046;28;19933;-69
2022/06/10 09:54:17;;;;;;;;;;;27.40;98.00;;;;;;5061250;28;19939;-71
2022/06/10 09:57:03;;;;;;;;;;;28.00;99.10;;;;;;5063541;28;20656;-73
2022/06/10 09:59:34;;;;;;;;;;;28.60;98.70;;;;;;5064041;28;19951;-71
2022/06/10 10:02:13;;;;;;;;;;;28.20;97.60;;;;;;5064925;28;19932;-70
2022/06/10 10:04:46;;;;;;;;;;;28.30;97.70;;;;;;5064370;28;19924;-72
2022/06/10 10:07:26;;;;;;;;;;;28.50;99.30;;;;;;5065735;28;20410;-71
2022/06/10 10:10:02;;;;;;;;;;;28.30;97.40;;;;;;5068980;28;19932;-71
2022/06/10 10:12:31;;;;;;;;;;;29.00;97.60;;;;;;5066859;28;19946;-70
2022/06/10 10:14:58;;;;;;;;;;;29.60;96.80;;;;;;5065746;28;20042;-70
2022/06/10 10:17:37;;;;;;;;;;;30.20;96.70;;;;;;5069373;28;19925;-69
2022/06/10 10:20:13;;;;;;;;;;;31.00;96.30;;;;;;5054840;28;19932;-70
2022/06/10 10:22:39;;;;;;;;;;;30.90;95.30;;;;;;5054748;28;20380;-70
2022/06/10 10:25:12;;;;;;;;;;;30.60;95.90;;;;;;5059171;28;19943;-69
2022/06/10 10:27:41;;;;;;;;;;;30.20;96.10;;;;;;5062489;28;19932;-68
2022/06/10 10:30:29;;;;;;;;;;;29.90;96.40;;;;;;5060694;28;19929;-69
2022/06/10 10:33:01;;;;;;;;;;;30.20;96.00;;;;;;5063286;28;19924;-68
2022/06/10 10:35:30;;;;;;;;;;;30.40;96.20;;;;;;5059117;28;19924;-67
2022/06/10 10:38:05;;;;;;;;;;;30.70;96.10;;;;;;5062222;28;20392;-70
2022/06/10 10:40:41;;;;;;;;;;;30.90;96.00;;;;;;5066935;28;19943;-67
2022/06/10 10:43:31;;;;;;;;;;;30.20;94.90;;;;;;5063971;28;19929;-68
2022/06/10 10:46:00;;;;;;;;;;;29.00;95.60;;;;;;5060209;28;20043;-69
2022/06/10 10:48:38;;;;;;;;;;;28.00;96.20;;;;;;5064246;28;19931;-70
2022/06/10 10:51:10;;;;;;;;;;;27.80;96.90;;;;;;5057805;28;19933;-71
2022/06/10 10:54:03;;;;;;;;;;;28.20;96.00;;;;;;5058322;28;19925;-70
2022/06/10 10:56:32;;;;;;;;;;;29.20;96.50;;;;;;5068759;28;19924;-70
2022/06/10 10:59:00;;;;;;;;;;;29.80;96.20;;;;;;5066656;28;20339;-70
2022/06/10 11:01:44;;;;;;;;;;;29.60;96.20;;;;;;5067163;28;19924;-69
2022/06/10 11:04:17;;;;;;;;;;;29.40;95.50;;;;;;5066482;28;21686;-69
2022/06/10 11:06:43;;;;;;;;;;;29.40;96.50;;;;;;5062564;28;20342;-66
2022/06/10 11:09:13;;;;;;;;;;;29.30;96.40;;;;;;5062598;28;20434;-70
2022/06/10 11:11:49;;;;;;;;;;;28.90;96.10;;;;;;5065904;28;19934;-68
2022/06/10 11:14:33;;;;;;;;;;;28.70;95.60;;;;;;5064764;28;19925;-68
2022/06/10 11:17:14;;;;;;;;;;;28.70;96.50;;;;;;5057827;28;19982;-67
2022/06/10 11:19:40;;;;;;;;;;;28.90;96.40;;;;;;5063743;28;20019;-69
2022/06/10 11:22:09;;;;;;;;;;;29.20;96.40;;;;;;5063270;28;19934;-68
2022/06/10 11:24:37;;;;;;;;;;;29.90;96.60;;;;;;5059697;28;20007;-69
2022/06/10 11:27:18;;;;;;;;;;;30.10;95.90;;;;;;5067330;28;19939;-67
2022/06/10 11:29:57;;;;;;;;;;;30.50;95.10;;;;;;5065336;28;19971;-68
2022/06/10 11:32:30;;;;;;;;;;;30.50;94.90;;;;;;5065324;28;19928;-67
2022/06/10 11:35:02;;;;;;;;;;;30.30;94.90;;;;;;5059153;28;19925;-68
2022/06/10 11:37:37;;;;;;;;;;;29.50;95.00;;;;;;5067513;28;20375;-67
2022/06/10 11:40:13;;;;;;;;;;;29.30;95.00;;;;;;5065055;28;19939;-70
2022/06/10 11:43:00;;;;;;;;;;;29.10;95.00;;;;;;5062397;28;19924;-69
2022/06/10 11:45:31;;;;;;;;;;;28.60;96.20;;;;;;5056764;28;19925;-68
2022/06/10 11:48:09;;;;;;;;;;;27.90;96.50;;;;;;5069244;28;20017;-68
2022/06/10 11:50:46;;;;;;;;;;;27.90;96.20;;;;;;5068086;28;20294;-68
2022/06/10 11:53:16;;;;;;;;;;;27.80;95.60;;;;;;5069070;28;19938;-68
2022/06/10 11:55:44;;;;;;;;;;;27.50;96.30;;;;;;5063691;28;19931;-68
2022/06/10 12:01:08;;;;;;;;;;;27.60;97.30;;;;;;5065352;28;20460;-68
2022/06/10 12:03:55;;;;;;;;;;;28.10;96.70;;;;;;5065964;28;19963;-68
2022/06/10 12:06:21;;;;;;;;;;;27.90;96.30;;;;;;5067420;28;19931;-66
2022/06/10 12:08:48;;;;;;;;;;;27.50;96.60;;;;;;5060410;28;20036;-69
2022/06/10 12:11:15;;;;;;;;;;;27.80;96.70;;;;;;5063016;28;19931;-69
2022/06/10 12:13:48;;;;;;;;;;;28.20;96.80;;;;;;5065040;28;19929;-70
2022/06/10 12:16:15;;;;;;;;;;;28.80;97.20;;;;;;5061925;28;20465;-71
2022/06/10 12:18:45;;;;;;;;;;;29.30;95.50;;;;;;5065545;28;20315;-71
2022/06/10 12:21:18;;;;;;;;;;;29.40;96.40;;;;;;5070591;28;19982;-67
2022/06/10 12:23:47;;;;;;;;;;;29.60;95.80;;;;;;5064030;28;19924;-68
2022/06/10 12:26:25;;;;;;;;;;;29.10;95.90;;;;;;5066815;28;19972;-68
2022/06/10 12:29:19;;;;;;;;;;;28.50;95.90;;;;;;5067690;28;19934;-68
2022/06/10 12:32:01;;;;;;;;;;;27.70;96.40;;;;;;5047495;28;19925;-65
2022/06/10 12:34:41;;;;;;;;;;;27.20;96.60;;;;;;5044945;28;19925;-68
2022/06/10 12:37:20;;;;;;;;;;;27.30;97.80;;;;;;5043505;28;20015;-71
2022/06/10 12:39:52;;;;;;;;;;;27.90;97.60;;;;;;5045018;28;19925;-65
2022/06/10 12:42:46;;;;;;;;;;;27.40;96.00;;;;;;5047552;28;19952;-67
2022/06/10 12:45:19;;;;;;;;;;;27.20;96.90;;;;;;5029872;28;19932;-68
2022/06/10 12:47:46;;;;;;;;;;;27.60;96.10;;;;;;5041281;28;20048;-68
2022/06/10 12:50:19;;;;;;;;;;;28.00;96.70;;;;;;5044516;28;20958;-67
2022/06/10 12:52:56;;;;;;;;;;;28.50;95.90;;;;;;5044512;28;19931;-67
2022/06/10 12:55:29;;;;;;;;;;;29.00;95.80;;;;;;5047493;28;20058;-68
2022/06/10 12:57:57;;;;;;;;;;;29.70;95.30;;;;;;5044603;28;19931;-66
2022/06/10 13:00:33;;;;;;;;;;;30.20;94.50;;;;;;5036332;28;19929;-67
2022/06/10 13:03:11;;;;;;;;;;;29.60;94.30;;;;;;5043432;28;19925;-68
2022/06/10 13:05:39;;;;;;;;;;;28.50;94.40;;;;;;5045777;28;20467;-66
2022/06/10 13:08:26;;;;;;;;;;;27.90;94.80;;;;;;5039189;28;19925;-68
2022/06/10 13:10:55;;;;;;;;;;;27.90;95.90;;;;;;5065611;28;19935;-70
2022/06/10 13:13:25;;;;;;;;;;;27.80;95.80;;;;;;5054290;28;19924;-72
2022/06/10 13:15:56;;;;;;;;;;;28.40;95.80;;;;;;5063735;28;19963;-71
2022/06/10 13:18:30;;;;;;;;;;;28.50;95.30;;;;;;5063173;28;19925;-64
2022/06/10 13:21:13;;;;;;;;;;;28.70;95.50;;;;;;5064440;28;19925;-68
2022/06/10 13:23:58;;;;;;;;;;;28.60;94.90;;;;;;5077049;28;20630;-67
2022/06/10 13:26:30;;;;;;;;;;;28.90;94.50;;;;;;5064347;28;19928;-69
2022/06/10 13:29:06;;;;;;;;;;;29.10;95.20;;;;;;5066333;28;20015;-68
2022/06/10 13:31:33;;;;;;;;;;;29.40;95.00;;;;;;5063568;28;19931;-68
2022/06/10 13:34:05;;;;;;;;;;;29.50;94.50;;;;;;5069290;28;19968;-68
2022/06/10 13:36:35;;;;;;;;;;;29.80;95.20;;;;;;5060701;28;19960;-68
2022/06/10 13:39:03;;;;;;;;;;;30.10;94.50;;;;;;5063454;28;19925;-69
2022/06/10 13:41:48;;;;;;;;;;;30.40;94.20;;;;;;5065673;28;19928;-68
2022/06/10 13:44:21;;;;;;;;;;;30.70;93.80;;;;;;5066471;28;19929;-67
2022/06/10 13:46:51;;;;;;;;;;;30.90;93.60;;;;;;5063031;28;19928;-70
2022/06/10 13:52:19;;;;;;;;;;;31.60;93.20;;;;;;5057534;28;20011;-70
2022/06/10 13:54:46;;;;;;;;;;;31.50;93.00;;;;;;5063396;28;19963;-69
2022/06/10 13:57:29;;;;;;;;;;;31.60;92.90;;;;;;5064063;28;19929;-69
2022/06/10 14:00:00;;;;;;;;;;;31.70;92.80;;;;;;5080774;28;19924;-71
2022/06/10 14:02:38;;;;;;;;;;;32.60;92.30;;;;;;5062971;28;20363;-69
2022/06/10 14:05:05;;;;;;;;;;;32.90;92.80;;;;;;5062811;28;19932;-66
2022/06/10 14:07:36;;;;;;;;;;;31.90;92.40;;;;;;5061801;28;20562;-65
2022/06/10 14:10:04;;;;;;;;;;;31.30;92.60;;;;;;5060962;28;19976;-67
2022/06/10 14:12:31;;;;;;;;;;;29.90;93.40;;;;;;5064071;28;20374;-64
2022/06/10 14:15:10;;;;;;;;;;;29.10;93.40;;;;;;5065037;28;19924;-67
2022/06/10 14:17:37;;;;;;;;;;;28.70;94.00;;;;;;5064070;28;19928;-66
2022/06/10 14:20:07;;;;;;;;;;;29.00;93.80;;;;;;5067064;28;19925;-67
2022/06/10 14:22:34;;;;;;;;;;;29.80;93.00;;;;;;5062417;28;19955;-66
2022/06/10 14:25:13;;;;;;;;;;;30.90;93.00;;;;;;5056663;28;19925;-65
2022/06/10 14:27:41;;;;;;;;;;;32.10;91.90;;;;;;5059126;28;19924;-66
2022/06/10 14:30:20;;;;;;;;;;;32.70;91.80;;;;;;5065096;28;19951;-67
2022/06/10 14:33:10;;;;;;;;;;;32.60;91.40;;;;;;5063052;28;20306;-67
2022/06/10 14:35:39;;;;;;;;;;;32.00;91.70;;;;;;5060675;28;19936;-67
2022/06/10 14:38:11;;;;;;;;;;;32.10;91.60;;;;;;5065834;28;19928;-66
2022/06/10 14:40:56;;;;;;;;;;;31.90;91.40;;;;;;5058302;28;19924;-66
2022/06/10 14:43:24;;;;;;;;;;;32.50;91.60;;;;;;5062718;28;19930;-66
2022/06/10 14:46:09;;;;;;;;;;;31.70;90.80;;;;;;5060649;28;19932;-66
2022/06/10 14:48:37;;;;;;;;;;;31.50;91.20;;;;;;5060716;28;19941;-67
2022/06/10 14:51:16;;;;;;;;;;;32.10;92.00;;;;;;5053489;28;20414;-68
2022/06/10 14:53:48;;;;;;;;;;;32.90;91.90;;;;;;5063133;28;19925;-66
2022/06/10 14:56:17;;;;;;;;;;;33.30;90.10;;;;;;5055063;28;20613;-67
2022/06/10 14:58:44;;;;;;;;;;;33.60;90.00;;;;;;5063402;28;19932;-66